Time;durP1;ratioP1;P1;durP2;ratioP2;P2;SDS_P1;SDS_P2;PMS_P1;PMS_P2;Temp;Humidity;BMP_temperature;BMP_pressure;BME280_temperature;BME280_humidity;BME280_pressure;Samples;Min_cycle;Max_cycle;Signal;HPM_P1;HPM_P2
2022/04/01 00:00:32;;;;;;;10.20;8.70;;;7.90;77.00;;;;;;4989761;28;20248;-80
2022/04/01 00:02:59;;;;;;;9.30;8.40;;;8.00;78.40;;;;;;4996443;28;20635;-79
2022/04/01 00:05:26;;;;;;;9.23;8.00;;;8.10;78.60;;;;;;5002225;28;20210;-80
2022/04/01 00:07:52;;;;;;;8.43;7.53;;;8.10;77.30;;;;;;4990678;28;20291;-79
2022/04/01 00:10:19;;;;;;;8.87;7.97;;;8.10;76.30;;;;;;4990480;28;20229;-80
2022/04/01 00:12:45;;;;;;;8.47;7.63;;;8.10;75.40;;;;;;4991878;28;20622;-79
2022/04/01 00:15:12;;;;;;;7.23;6.53;;;8.20;78.40;;;;;;4991943;28;20235;-80
2022/04/01 00:17:39;;;;;;;6.67;5.80;;;8.20;75.50;;;;;;4991997;28;20220;-80
2022/04/01 00:20:05;;;;;;;6.33;5.13;;;8.10;73.30;;;;;;4989350;28;20316;-79
2022/04/01 00:22:32;;;;;;;6.23;5.63;;;8.00;71.80;;;;;;4992504;28;20229;-81
2022/04/01 00:24:59;;;;;;;4.87;4.37;;;8.00;73.70;;;;;;4992722;28;20205;-80
2022/04/01 00:27:25;;;;;;;5.83;4.73;;;7.90;72.60;;;;;;4991713;28;20723;-81
2022/04/01 00:29:52;;;;;;;5.00;4.50;;;7.90;72.60;;;;;;4991800;28;20588;-81
2022/04/01 00:32:19;;;;;;;5.30;4.80;;;7.80;71.60;;;;;;4989912;28;20212;-80
2022/04/01 00:34:46;;;;;;;5.43;4.77;;;7.90;73.00;;;;;;4993376;28;20212;-81
2022/04/01 00:37:13;;;;;;;4.40;4.03;;;7.80;72.90;;;;;;4995147;28;20216;-81
2022/04/01 00:39:39;;;;;;;4.63;4.23;;;7.80;71.70;;;;;;4990538;28;20764;-81
2022/04/01 00:42:06;;;;;;;5.40;4.90;;;7.70;72.40;;;;;;4990312;28;20216;-81
2022/04/01 00:44:32;;;;;;;4.57;4.27;;;7.70;73.40;;;;;;4990711;28;20201;-81
2022/04/01 00:46:59;;;;;;;4.93;4.53;;;7.70;73.70;;;;;;4991238;28;20211;-81
2022/04/01 00:49:26;;;;;;;5.27;4.73;;;7.70;73.60;;;;;;4987331;28;20208;-81
2022/04/01 00:51:53;;;;;;;6.77;5.00;;;7.70;72.10;;;;;;4990366;28;20639;-81
2022/04/01 00:54:20;;;;;;;5.57;5.07;;;7.60;72.70;;;;;;4988388;28;20252;-81
2022/04/01 00:56:46;;;;;;;5.90;5.40;;;7.70;74.20;;;;;;4991709;28;20677;-81
2022/04/01 00:59:13;;;;;;;5.87;5.37;;;7.60;74.40;;;;;;4992031;28;20208;-81
2022/04/01 01:01:43;;;;;;;6.17;5.23;;;7.70;74.10;;;;;;4991217;28;20204;-81
2022/04/01 01:04:09;;;;;;;5.40;4.90;;;7.60;74.10;;;;;;4990879;28;20239;-82
2022/04/01 01:06:36;;;;;;;6.00;5.27;;;7.50;73.10;;;;;;4991726;28;20208;-81
2022/04/01 01:09:02;;;;;;;5.87;5.33;;;7.60;73.20;;;;;;4989873;28;20303;-81
2022/04/01 01:11:29;;;;;;;5.80;5.30;;;7.60;71.80;;;;;;4992048;28;20283;-81
2022/04/01 01:13:55;;;;;;;5.13;4.73;;;7.60;71.70;;;;;;4975682;28;20299;-81
2022/04/01 01:16:22;;;;;;;5.17;4.67;;;7.60;70.60;;;;;;4994604;28;20209;-81
2022/04/01 01:18:49;;;;;;;5.00;4.60;;;7.50;70.70;;;;;;4991806;28;20216;-80
2022/04/01 01:21:15;;;;;;;4.67;4.33;;;7.40;70.40;;;;;;4990643;28;20635;-81
2022/04/01 01:23:42;;;;;;;5.73;5.27;;;7.40;70.40;;;;;;4992508;28;20696;-81
2022/04/01 01:26:08;;;;;;;5.70;5.20;;;7.40;71.60;;;;;;4988412;28;20208;-81
2022/04/01 01:28:35;;;;;;;5.37;4.87;;;7.40;71.60;;;;;;4991745;28;20226;-82
2022/04/01 01:31:05;;;;;;;6.13;4.97;;;7.40;73.30;;;;;;4991757;28;20231;-81
2022/04/01 01:33:32;;;;;;;5.37;4.97;;;7.40;72.90;;;;;;4991922;28;20315;-81
2022/04/01 01:35:58;;;;;;;5.50;5.00;;;7.50;72.50;;;;;;4991223;28;20274;-81
2022/04/01 01:38:25;;;;;;;6.00;5.40;;;7.40;71.10;;;;;;4990547;28;20219;-81
2022/04/01 01:40:52;;;;;;;6.40;5.80;;;7.40;71.40;;;;;;4991948;28;20235;-82
2022/04/01 01:43:19;;;;;;;5.63;5.13;;;7.40;71.60;;;;;;4989713;28;20238;-83
2022/04/01 01:45:45;;;;;;;6.50;5.90;;;7.40;71.80;;;;;;4994745;28;20205;-81
2022/04/01 01:48:12;;;;;;;5.70;5.20;;;7.50;74.10;;;;;;4993680;28;20208;-82
2022/04/01 01:56:06;;;;;;;5.80;5.30;;;7.40;72.30;;;;;;4990640;28;20195;-80
2022/04/01 01:58:34;;;;;;;6.30;5.70;;;7.40;73.40;;;;;;4994967;28;20239;-79
2022/04/01 02:01:02;;;;;;;6.73;5.93;;;7.40;73.60;;;;;;4995028;28;20223;-80
2022/04/01 02:03:28;;;;;;;5.90;5.40;;;7.40;74.10;;;;;;4995359;28;20259;-80
2022/04/01 02:05:55;;;;;;;6.20;5.70;;;7.40;71.70;;;;;;4993745;28;20258;-80
2022/04/01 02:08:21;;;;;;;6.30;5.70;;;7.50;71.50;;;;;;4995118;28;20723;-80
2022/04/01 02:10:48;;;;;;;5.87;5.37;;;7.40;72.30;;;;;;4993960;28;20279;-79
2022/04/01 02:13:15;;;;;;;7.10;6.40;;;7.40;71.60;;;;;;4994393;28;20262;-80
2022/04/01 02:15:41;;;;;;;6.90;6.27;;;7.40;72.50;;;;;;4992868;28;20299;-80
2022/04/01 02:18:08;;;;;;;6.87;6.17;;;7.30;71.80;;;;;;4995826;28;20196;-80
2022/04/01 02:20:37;;;;;;;6.20;5.60;;;7.30;71.50;;;;;;4994297;28;20224;-80
2022/04/01 02:23:03;;;;;;;6.80;6.10;;;7.30;71.70;;;;;;4994569;28;20235;-80
2022/04/01 02:25:31;;;;;;;6.77;6.07;;;7.30;70.60;;;;;;4993845;28;20208;-80
2022/04/01 02:27:57;;;;;;;7.30;6.53;;;7.30;71.50;;;;;;4995413;28;20209;-80
2022/04/01 02:30:24;;;;;;;6.37;5.77;;;7.10;71.20;;;;;;4991082;28;20228;-79
2022/04/01 02:32:50;;;;;;;6.10;5.60;;;7.20;71.50;;;;;;4995003;28;20215;-79
2022/04/01 02:35:18;;;;;;;7.17;6.47;;;7.20;72.10;;;;;;4993905;28;20204;-80
2022/04/01 02:37:45;;;;;;;6.70;6.00;;;7.20;74.40;;;;;;5013161;28;20218;-77
2022/04/01 02:40:11;;;;;;;5.90;5.40;;;7.20;72.80;;;;;;5003641;28;20736;-78
2022/04/01 02:42:38;;;;;;;5.33;4.83;;;7.10;70.60;;;;;;4994240;28;20706;-77
2022/04/01 02:45:04;;;;;;;4.83;4.43;;;7.00;72.10;;;;;;4992127;28;20293;-77
2022/04/01 02:47:31;;;;;;;4.80;4.40;;;7.00;71.40;;;;;;4994723;28;20212;-77
2022/04/01 02:49:57;;;;;;;3.97;3.67;;;6.90;70.00;;;;;;4989570;28;20315;-77
2022/04/01 02:52:24;;;;;;;4.80;4.30;;;6.80;69.30;;;;;;4982675;28;20262;-79
2022/04/01 02:54:52;;;;;;;4.20;3.90;;;6.60;69.50;;;;;;4991632;28;20211;-78
2022/04/01 02:57:19;;;;;;;3.90;3.60;;;6.60;68.60;;;;;;4988256;28;20204;-78
2022/04/01 02:59:45;;;;;;;4.10;3.80;;;6.60;68.20;;;;;;4991613;28;20645;-78
2022/04/01 03:02:12;;;;;;;4.10;3.70;;;6.50;68.50;;;;;;4992471;28;20656;-79
2022/04/01 03:04:39;;;;;;;3.60;3.30;;;6.40;69.40;;;;;;4993080;28;20318;-78
2022/04/01 03:07:06;;;;;;;5.07;3.80;;;6.50;69.40;;;;;;4993941;28;20203;-78
2022/04/01 03:09:32;;;;;;;3.40;3.20;;;6.60;69.50;;;;;;4992797;28;20727;-78
2022/04/01 03:12:00;;;;;;;3.50;3.20;;;6.50;68.30;;;;;;4994311;28;20216;-77
2022/04/01 03:14:27;;;;;;;3.70;3.43;;;6.60;66.90;;;;;;4994255;28;20219;-78
2022/04/01 03:16:54;;;;;;;3.83;3.53;;;6.40;66.80;;;;;;4991666;28;20371;-77
2022/04/01 03:19:20;;;;;;;3.60;3.30;;;6.40;67.40;;;;;;4993137;28;20664;-78
2022/04/01 03:21:47;;;;;;;3.93;3.63;;;6.40;67.40;;;;;;4992135;28;20303;-78
2022/04/01 03:24:14;;;;;;;3.73;3.53;;;6.20;69.20;;;;;;4992690;28;20255;-78
2022/04/01 03:26:40;;;;;;;3.97;3.67;;;6.30;69.30;;;;;;4994354;28;20208;-77
2022/04/01 03:29:07;;;;;;;3.23;3.03;;;6.30;69.30;;;;;;5001071;28;20223;-77
2022/04/01 03:31:34;;;;;;;3.70;3.50;;;6.30;65.80;;;;;;4988227;28;20220;-78
2022/04/01 03:34:01;;;;;;;3.53;3.27;;;6.20;67.50;;;;;;4993426;28;20635;-78
2022/04/01 03:36:27;;;;;;;3.40;3.13;;;6.20;67.10;;;;;;4992911;28;20212;-78
2022/04/01 03:38:54;;;;;;;3.57;3.33;;;6.10;67.30;;;;;;4992129;28;20307;-78
2022/04/01 03:41:21;;;;;;;3.20;3.00;;;6.10;68.40;;;;;;4992957;28;20212;-79
2022/04/01 03:43:47;;;;;;;3.63;3.40;;;6.00;66.90;;;;;;4992239;28;20242;-79
2022/04/01 03:46:15;;;;;;;3.63;3.33;;;6.00;67.40;;;;;;4991825;28;20611;-78
2022/04/01 03:48:42;;;;;;;3.87;3.57;;;6.10;67.30;;;;;;4992238;28;20211;-79
2022/04/01 03:51:09;;;;;;;4.13;3.83;;;6.00;68.10;;;;;;4992413;28;20231;-79
2022/04/01 03:53:35;;;;;;;3.97;3.67;;;6.00;67.90;;;;;;4992170;28;20235;-78
2022/04/01 03:56:02;;;;;;;3.40;3.10;;;5.90;66.00;;;;;;4991998;28;20274;-78
2022/04/01 03:58:29;;;;;;;3.67;3.47;;;5.70;67.10;;;;;;4992876;28;20207;-78
2022/04/01 04:00:56;;;;;;;3.63;3.43;;;5.80;68.50;;;;;;4993624;28;20290;-78
2022/04/01 04:03:23;;;;;;;3.40;3.20;;;5.70;67.30;;;;;;4993075;28;20303;-78
2022/04/01 04:05:49;;;;;;;3.80;3.50;;;5.80;67.90;;;;;;4992045;28;20694;-78
2022/04/01 04:08:16;;;;;;;3.50;3.20;;;5.70;67.90;;;;;;4973475;28;20208;-78
2022/04/01 04:10:42;;;;;;;4.13;3.77;;;5.60;66.40;;;;;;4992822;28;20223;-79
2022/04/01 04:13:09;;;;;;;4.10;3.80;;;5.70;67.60;;;;;;4991609;28;20208;-78
2022/04/01 04:15:39;;;;;;;3.77;3.57;;;5.70;68.80;;;;;;4991343;28;20200;-79
2022/04/01 04:18:06;;;;;;;3.30;3.10;;;5.70;68.10;;;;;;4991664;28;20208;-79
2022/04/01 04:20:33;;;;;;;4.13;3.83;;;5.80;66.10;;;;;;4992456;28;20220;-79
2022/04/01 04:23:00;;;;;;;3.50;3.20;;;5.50;67.00;;;;;;4992127;28;20246;-79
2022/04/01 04:25:26;;;;;;;3.57;3.37;;;5.40;67.80;;;;;;4990738;28;20199;-79
2022/04/01 04:27:53;;;;;;;4.83;3.37;;;5.60;67.20;;;;;;4986956;28;20230;-78
2022/04/01 04:30:22;;;;;;;3.40;3.10;;;5.50;66.10;;;;;;4989385;28;20231;-78
2022/04/01 04:32:48;;;;;;;3.30;3.10;;;5.60;66.70;;;;;;4991755;28;20210;-79
2022/04/01 04:35:15;;;;;;;3.20;3.00;;;5.70;66.20;;;;;;4997407;28;20273;-79
2022/04/01 04:37:41;;;;;;;3.30;3.00;;;5.60;65.50;;;;;;4996451;28;20220;-78
2022/04/01 04:40:08;;;;;;;2.80;2.60;;;5.50;64.00;;;;;;4989686;28;20298;-78
2022/04/01 04:42:34;;;;;;;2.97;2.80;;;5.40;65.60;;;;;;4991330;28;20622;-79
2022/04/01 04:45:01;;;;;;;3.00;2.80;;;5.40;64.30;;;;;;4991946;28;20326;-79
2022/04/01 04:47:28;;;;;;;3.30;3.10;;;5.40;66.60;;;;;;4989311;28;20219;-78
2022/04/01 04:49:55;;;;;;;3.00;2.80;;;5.40;64.50;;;;;;4992210;28;20688;-78
2022/04/01 04:52:23;;;;;;;3.13;2.90;;;5.30;64.60;;;;;;4997217;28;20199;-78
2022/04/01 04:54:50;;;;;;;2.90;2.70;;;5.20;65.20;;;;;;5001922;28;20214;-79
2022/04/01 04:57:16;;;;;;;2.70;2.60;;;5.00;64.10;;;;;;4990767;28;20212;-78
2022/04/01 04:59:43;;;;;;;2.53;2.43;;;4.90;65.50;;;;;;4991082;28;20317;-78
2022/04/01 05:02:10;;;;;;;3.00;2.80;;;5.10;64.60;;;;;;4990599;28;20251;-77
2022/04/01 05:04:39;;;;;;;3.17;2.77;;;5.00;64.60;;;;;;4991731;28;20584;-78
2022/04/01 05:07:05;;;;;;;3.17;2.93;;;4.90;65.20;;;;;;4989862;28;20211;-78
2022/04/01 05:09:32;;;;;;;3.03;2.83;;;4.80;65.70;;;;;;4994764;28;20284;-77
2022/04/01 05:11:59;;;;;;;2.90;2.70;;;4.70;65.70;;;;;;4989260;28;20211;-78
2022/04/01 05:14:25;;;;;;;3.23;3.03;;;4.60;64.80;;;;;;4991616;28;20301;-78
2022/04/01 05:16:52;;;;;;;2.90;2.70;;;4.60;65.30;;;;;;4988809;28;20344;-78
2022/04/01 05:19:18;;;;;;;3.03;2.83;;;4.60;65.00;;;;;;4991161;28;20228;-78
2022/04/01 05:21:51;;;;;;;2.97;2.77;;;4.60;65.60;;;;;;4981889;28;20282;-77
2022/04/01 05:24:18;;;;;;;3.10;2.90;;;4.60;65.30;;;;;;4985930;28;20231;-79
2022/04/01 05:26:45;;;;;;;2.87;2.70;;;4.50;63.20;;;;;;4988405;28;20210;-78
2022/04/01 05:29:13;;;;;;;3.10;2.90;;;4.40;65.30;;;;;;4989968;28;20226;-78
2022/04/01 05:31:41;;;;;;;2.97;2.77;;;4.50;64.80;;;;;;4990612;28;20242;-78
2022/04/01 05:34:08;;;;;;;3.07;2.87;;;4.50;65.00;;;;;;4991061;28;20218;-78
2022/04/01 05:36:34;;;;;;;2.80;2.60;;;4.60;64.80;;;;;;4989886;28;20207;-78
2022/04/01 05:39:03;;;;;;;3.37;3.17;;;4.50;63.80;;;;;;4989714;28;20228;-78
2022/04/01 07:33:53;;;;;;;2.77;2.57;;;4.40;67.50;;;;;;5023157;23;20756;-84
2022/04/01 07:36:22;;;;;;;2.60;2.40;;;4.40;67.50;;;;;;4959902;28;20232;-89
2022/04/01 07:38:48;;;;;;;2.70;2.50;;;4.60;66.50;;;;;;4965876;28;20215;-84
2022/04/01 07:41:15;;;;;;;2.33;2.23;;;4.60;65.60;;;;;;4975981;28;20307;-83
2022/04/01 07:43:41;;;;;;;2.80;2.60;;;4.40;65.20;;;;;;4976458;28;20212;-87
2022/04/01 07:46:11;;;;;;;2.60;2.40;;;4.50;66.00;;;;;;4978931;28;20208;-89
2022/04/01 07:48:38;;;;;;;2.40;2.30;;;4.50;66.90;;;;;;4976811;28;20208;-85
2022/04/01 07:51:04;;;;;;;2.50;2.30;;;4.30;65.90;;;;;;4972755;28;20200;-86
2022/04/01 07:53:31;;;;;;;2.30;2.20;;;4.40;66.50;;;;;;4972205;28;20304;-85
2022/04/01 07:56:11;;;;;;;;;;;;;;;;;;;;;
2022/04/01 08:01:34;;;;;;;2.33;2.23;;;4.50;66.70;;;;;;4894338;29;20718;-91
2022/04/01 08:04:00;;;;;;;2.30;2.20;;;4.40;66.00;;;;;;4923295;28;20592;-81
2022/04/01 08:06:27;;;;;;;2.50;2.30;;;4.40;66.10;;;;;;4973899;28;20322;-84
2022/04/01 08:09:04;;;;;;;2.40;2.30;;;4.50;65.60;;;;;;4973242;28;20204;-85
2022/04/01 08:11:36;;;;;;;2.10;2.00;;;4.40;66.20;;;;;;4973629;28;20570;-81
2022/04/01 08:14:03;;;;;;;2.87;2.67;;;4.40;67.20;;;;;;4963252;28;20237;-84
2022/04/01 08:16:29;;;;;;;1.90;1.80;;;4.60;66.60;;;;;;4963809;28;20312;-82
2022/04/01 08:18:56;;;;;;;2.10;2.00;;;4.60;65.80;;;;;;4953939;28;20242;-85
2022/04/01 08:21:25;;;;;;;2.10;2.00;;;4.60;64.60;;;;;;4974017;28;20263;-84
2022/04/01 08:23:55;;;;;;;2.10;2.00;;;4.60;65.70;;;;;;4974392;28;20279;-82
2022/04/01 08:29:05;;;;;;;2.10;2.00;;;4.40;65.60;;;;;;4964436;28;20208;-84
2022/04/01 08:31:33;;;;;;;2.73;2.57;;;4.40;67.40;;;;;;4974226;28;20653;-81
2022/04/01 08:33:59;;;;;;;2.40;2.30;;;4.60;65.40;;;;;;4968003;28;20208;-80
2022/04/01 08:36:26;;;;;;;2.37;2.17;;;4.40;64.50;;;;;;4960761;28;20248;-77
2022/04/01 08:38:52;;;;;;;2.30;2.20;;;4.50;66.40;;;;;;4963571;28;20299;-79
2022/04/01 08:41:19;;;;;;;2.00;1.90;;;4.60;67.00;;;;;;4966019;28;20208;-79
2022/04/01 08:43:46;;;;;;;2.10;2.00;;;4.70;63.50;;;;;;4970021;28;20208;-80
2022/04/01 08:46:12;;;;;;;2.13;2.03;;;4.60;65.60;;;;;;4968060;28;20705;-82
2022/04/01 08:48:39;;;;;;;2.30;2.20;;;4.60;65.90;;;;;;4965300;28;20208;-82
2022/04/01 08:51:05;;;;;;;2.00;1.90;;;4.80;68.00;;;;;;4968567;28;20579;-81
2022/04/01 08:53:32;;;;;;;1.93;1.83;;;4.40;66.50;;;;;;4963700;28;20209;-79
2022/04/01 08:55:58;;;;;;;1.93;1.83;;;4.50;65.40;;;;;;4970537;28;20312;-79
2022/04/01 08:58:25;;;;;;;2.10;2.00;;;4.50;66.30;;;;;;4971103;28;20216;-78
2022/04/01 09:00:52;;;;;;;1.83;1.73;;;4.60;64.60;;;;;;4967550;28;20629;-79
2022/04/01 09:03:18;;;;;;;2.20;2.10;;;4.40;65.90;;;;;;4962844;28;20310;-78
2022/04/01 09:05:45;;;;;;;2.20;2.10;;;4.60;66.50;;;;;;4961413;28;20327;-79
2022/04/01 09:08:14;;;;;;;3.43;2.10;;;4.70;66.40;;;;;;4963276;28;20201;-79
2022/04/01 09:10:41;;;;;;;2.17;2.07;;;4.70;64.70;;;;;;4964521;28;20616;-81
2022/04/01 09:13:07;;;;;;;2.73;2.53;;;4.80;66.00;;;;;;4961997;28;20205;-80
2022/04/01 09:15:34;;;;;;;2.00;1.90;;;5.00;66.30;;;;;;4967689;28;20316;-80
2022/04/01 09:18:00;;;;;;;2.17;2.07;;;5.10;64.00;;;;;;4968667;28;20251;-79
2022/04/01 09:20:27;;;;;;;1.80;1.70;;;4.90;64.80;;;;;;4966384;28;20257;-80
2022/04/01 09:22:53;;;;;;;1.70;1.60;;;4.90;65.10;;;;;;4967759;28;20604;-79
2022/04/01 09:25:21;;;;;;;1.93;1.83;;;4.90;64.90;;;;;;4964761;28;20232;-79
2022/04/01 09:27:47;;;;;;;2.50;2.40;;;5.00;63.70;;;;;;4965935;28;20197;-79
2022/04/01 09:30:14;;;;;;;1.90;1.80;;;4.90;65.00;;;;;;4970407;28;20222;-79
2022/04/01 09:32:41;;;;;;;2.00;1.90;;;4.90;63.50;;;;;;4970082;28;20588;-80
2022/04/01 09:35:09;;;;;;;1.97;1.87;;;4.80;66.70;;;;;;4967603;28;20205;-79
2022/04/01 09:37:36;;;;;;;2.70;2.50;;;4.80;64.00;;;;;;4964534;28;20208;-78
2022/04/01 09:40:02;;;;;;;2.23;2.03;;;4.80;65.20;;;;;;4967270;28;20300;-79
2022/04/01 09:42:29;;;;;;;2.00;1.90;;;4.80;63.90;;;;;;4964655;28;20736;-79
2022/04/01 09:44:56;;;;;;;1.73;1.70;;;4.80;65.60;;;;;;4969067;28;20316;-81
2022/04/01 09:47:22;;;;;;;2.00;1.90;;;5.00;65.90;;;;;;4970326;28;20239;-81
2022/04/01 09:49:52;;;;;;;2.20;2.10;;;4.90;65.10;;;;;;4971380;28;20360;-81
2022/04/01 09:52:21;;;;;;;1.70;1.60;;;4.90;64.70;;;;;;4973032;28;20197;-79
2022/04/01 09:54:47;;;;;;;1.80;1.70;;;4.90;64.20;;;;;;4967501;28;20212;-81
2022/04/01 09:57:14;;;;;;;1.93;1.83;;;4.80;64.70;;;;;;4968261;28;20232;-79
2022/04/01 09:59:41;;;;;;;1.90;1.80;;;4.70;63.90;;;;;;4970873;28;20288;-84
2022/04/01 10:02:07;;;;;;;2.10;2.00;;;4.60;64.70;;;;;;4970089;28;20201;-77
2022/04/01 10:04:34;;;;;;;2.00;1.90;;;4.50;66.10;;;;;;4972445;28;20239;-77
2022/04/01 10:07:00;;;;;;;1.90;1.80;;;4.60;65.00;;;;;;4975071;28;20227;-78
2022/04/01 10:09:27;;;;;;;2.10;2.00;;;4.70;65.30;;;;;;4976474;28;20219;-78
2022/04/01 10:11:53;;;;;;;2.00;1.90;;;4.90;65.20;;;;;;4975815;28;20661;-77
2022/04/01 10:14:20;;;;;;;2.00;1.90;;;4.80;65.30;;;;;;4970987;28;20345;-78
2022/04/01 10:16:46;;;;;;;2.07;1.97;;;4.80;65.20;;;;;;4977520;28;20236;-78
2022/04/01 10:19:13;;;;;;;1.90;1.80;;;4.80;66.20;;;;;;4977305;28;20291;-78
2022/04/01 10:21:40;;;;;;;2.63;2.40;;;4.50;64.60;;;;;;4973948;28;20262;-79
2022/04/01 10:24:07;;;;;;;2.20;2.10;;;4.70;66.20;;;;;;4970859;28;20233;-79
2022/04/01 10:26:33;;;;;;;2.10;2.00;;;4.80;64.90;;;;;;4971941;28;20236;-78
2022/04/01 10:29:00;;;;;;;1.80;1.70;;;4.80;65.50;;;;;;4965031;28;20235;-79
2022/04/01 10:31:27;;;;;;;1.90;1.80;;;4.90;63.70;;;;;;4968236;28;20217;-79
2022/04/01 10:33:54;;;;;;;1.97;1.87;;;4.80;63.40;;;;;;4978163;28;20236;-79
2022/04/01 10:36:21;;;;;;;2.00;1.90;;;4.80;64.20;;;;;;4977191;28;21727;-80
2022/04/01 10:38:47;;;;;;;2.13;2.03;;;4.60;65.60;;;;;;4973283;28;20208;-79
2022/04/01 10:41:15;;;;;;;2.00;1.90;;;4.80;66.90;;;;;;4967650;28;20319;-78
2022/04/01 10:43:42;;;;;;;1.90;1.80;;;5.00;67.60;;;;;;4969177;28;20200;-80
2022/04/01 10:46:08;;;;;;;2.10;2.00;;;4.90;64.60;;;;;;4968232;28;20240;-79
2022/04/01 10:51:38;;;;;;;2.10;2.00;;;4.80;66.90;;;;;;4962816;28;20398;-80
2022/04/01 10:54:06;;;;;;;2.10;2.00;;;4.80;64.20;;;;;;4970921;28;20243;-79
2022/04/01 10:56:33;;;;;;;1.77;1.70;;;4.90;64.90;;;;;;4968876;28;20232;-80
2022/04/01 10:58:59;;;;;;;2.10;2.00;;;4.80;66.00;;;;;;4970457;28;20214;-79
2022/04/01 11:01:26;;;;;;;2.00;1.90;;;4.80;65.30;;;;;;4969701;28;20209;-79
2022/04/01 11:03:52;;;;;;;2.37;2.27;;;4.90;66.60;;;;;;4972980;28;20339;-80
2022/04/01 11:06:18;;;;;;;1.90;1.80;;;4.60;66.00;;;;;;4966062;28;20240;-80
2022/04/01 11:08:45;;;;;;;2.10;2.00;;;4.80;68.00;;;;;;4966599;28;20232;-79
2022/04/01 11:11:12;;;;;;;2.17;2.00;;;4.90;66.50;;;;;;4970819;28;20204;-82
2022/04/01 11:13:38;;;;;;;2.10;2.00;;;4.90;64.80;;;;;;4972739;28;20234;-80
2022/04/01 11:16:05;;;;;;;2.17;2.07;;;4.90;65.10;;;;;;4970566;28;20235;-81
2022/04/01 11:18:31;;;;;;;2.40;2.30;;;4.80;65.50;;;;;;4969270;28;20201;-81
2022/04/01 11:20:58;;;;;;;2.20;2.10;;;4.70;65.20;;;;;;4973222;28;20207;-81
2022/04/01 11:23:24;;;;;;;2.10;2.00;;;4.70;66.00;;;;;;4968618;28;20547;-81
2022/04/01 13:26:43;;;;;;;4.87;2.50;;;22.20;35.90;;;;;;5058742;27;20313;-69
2022/04/01 13:29:10;;;;;;;5.17;2.57;;;22.10;36.40;;;;;;5047567;28;20208;-60
2022/04/01 13:31:37;;;;;;;3.83;2.27;;;21.90;36.30;;;;;;5038521;28;20215;-69
2022/04/01 13:34:04;;;;;;;5.18;2.83;;;21.90;36.30;;;;;;5048843;28;20554;-66
2022/04/01 13:36:31;;;;;;;4.78;2.67;;;21.90;36.60;;;;;;5047104;28;20253;-65
2022/04/01 13:38:57;;;;;;;5.30;2.42;;;21.80;37.00;;;;;;5047466;28;20214;-68
2022/04/01 13:41:24;;;;;;;4.72;2.60;;;21.90;36.90;;;;;;5040544;28;20202;-64
2022/04/01 13:43:50;;;;;;;5.43;2.63;;;21.80;36.80;;;;;;5044428;28;20225;-65
2022/04/01 13:46:18;;;;;;;4.53;2.90;;;21.90;36.90;;;;;;5042388;28;20212;-64
2022/04/01 13:48:45;;;;;;;4.78;2.55;;;21.80;37.50;;;;;;5043145;28;20663;-63
2022/04/01 13:51:12;;;;;;;4.80;2.50;;;21.80;36.80;;;;;;5043357;28;20209;-63
2022/04/01 13:53:38;;;;;;;5.25;2.72;;;21.90;37.10;;;;;;5041613;28;20248;-63
2022/04/01 13:56:05;;;;;;;5.75;2.75;;;21.80;37.00;;;;;;5045223;28;20696;-63
2022/04/01 13:58:31;;;;;;;4.57;2.33;;;21.80;36.90;;;;;;5044801;28;20206;-63
2022/04/01 14:00:58;;;;;;;3.85;2.60;;;21.80;36.90;;;;;;5043537;28;20198;-63
2022/04/01 14:03:24;;;;;;;5.32;2.50;;;21.90;37.20;;;;;;5044007;28;20233;-61
2022/04/01 14:05:51;;;;;;;5.68;3.00;;;21.90;37.00;;;;;;5046792;28;20198;-62
2022/04/01 14:08:17;;;;;;;5.30;2.92;;;21.90;36.90;;;;;;5041793;28;20198;-61
2022/04/01 14:10:45;;;;;;;4.13;2.10;;;22.00;36.80;;;;;;5039963;28;20202;-62
2022/04/01 14:13:11;;;;;;;4.85;1.77;;;22.00;37.00;;;;;;5041844;28;20202;-65
2022/04/01 14:15:38;;;;;;;6.43;2.10;;;21.90;33.40;;;;;;5044083;28;20316;-61
2022/04/01 14:18:04;;;;;;;3.65;2.58;;;21.80;33.70;;;;;;5041977;28;20256;-62
2022/04/01 14:20:31;;;;;;;3.70;2.25;;;21.70;33.90;;;;;;5038351;28;20268;-63
2022/04/01 14:22:57;;;;;;;2.90;1.50;;;21.70;33.70;;;;;;5037324;28;20243;-61
2022/04/01 14:25:24;;;;;;;3.45;2.00;;;21.70;33.80;;;;;;5045728;28;20244;-59
2022/04/01 14:27:50;;;;;;;3.95;2.10;;;21.80;34.00;;;;;;5039319;28;20221;-61
2022/04/01 14:30:18;;;;;;;2.70;1.70;;;21.70;33.50;;;;;;5044606;28;20567;-60
2022/04/01 14:32:44;;;;;;;4.53;2.05;;;21.50;31.50;;;;;;5041802;28;20238;-61
2022/04/01 14:35:10;;;;;;;1.95;1.55;;;21.40;31.80;;;;;;5037274;28;20244;-64
2022/04/01 14:37:37;;;;;;;3.00;2.17;;;21.40;31.70;;;;;;5052380;28;20221;-61
2022/04/01 14:40:03;;;;;;;2.35;1.55;;;21.50;32.10;;;;;;5052336;28;20198;-60
2022/04/01 14:42:30;;;;;;;3.47;1.67;;;21.50;31.50;;;;;;5048740;28;21873;-59
2022/04/01 14:44:56;;;;;;;2.08;1.67;;;21.50;31.60;;;;;;5045817;28;20244;-59
2022/04/01 14:47:24;;;;;;;2.58;1.70;;;21.50;31.30;;;;;;5047394;28;20208;-56
2022/04/01 14:49:50;;;;;;;3.35;1.75;;;21.60;32.10;;;;;;5052321;28;20650;-54
2022/04/01 14:52:17;;;;;;;2.00;1.48;;;21.60;31.00;;;;;;5051870;28;20210;-61
2022/04/01 14:54:43;;;;;;;2.67;1.38;;;21.60;31.00;;;;;;5049707;28;20218;-61
2022/04/01 14:57:10;;;;;;;2.28;1.20;;;21.50;31.00;;;;;;5048183;28;20206;-65
2022/04/01 14:59:36;;;;;;;2.83;1.55;;;21.70;31.10;;;;;;5051461;28;20289;-51
2022/04/01 15:02:03;;;;;;;2.15;1.70;;;21.60;31.00;;;;;;5048093;28;20205;-57
2022/04/01 15:04:30;;;;;;;1.83;1.52;;;21.50;31.00;;;;;;5048565;28;20221;-54
2022/04/01 15:06:56;;;;;;;2.88;1.70;;;21.50;31.00;;;;;;5053199;28;20300;-60
2022/04/01 15:09:23;;;;;;;1.67;1.40;;;21.40;30.80;;;;;;5048121;28;20228;-62
2022/04/01 15:11:49;;;;;;;1.30;1.20;;;21.50;30.70;;;;;;5048943;28;20202;-56
2022/04/01 15:14:15;;;;;;;1.48;1.30;;;21.50;31.00;;;;;;5050883;28;20222;-57
2022/04/01 15:16:42;;;;;;;2.28;1.58;;;21.40;30.30;;;;;;5050090;28;20240;-58
2022/04/01 15:19:08;;;;;;;2.13;1.33;;;21.50;30.50;;;;;;5048733;28;20197;-59
2022/04/01 15:21:35;;;;;;;1.63;1.40;;;21.40;30.20;;;;;;5047771;28;20620;-58
2022/04/01 15:24:01;;;;;;;1.75;1.65;;;21.40;30.80;;;;;;5050315;28;20217;-61
2022/04/01 15:26:28;;;;;;;1.40;1.17;;;21.40;30.20;;;;;;5050341;28;20214;-59
2022/04/01 15:28:55;;;;;;;2.13;1.30;;;21.40;30.20;;;;;;5047876;28;20201;-60
2022/04/01 15:31:21;;;;;;;1.58;1.20;;;21.40;30.10;;;;;;5035504;28;20198;-59
2022/04/01 15:33:47;;;;;;;1.73;1.20;;;21.40;30.00;;;;;;5032914;28;20226;-57
2022/04/01 15:36:14;;;;;;;1.80;1.13;;;21.40;29.90;;;;;;5045148;28;20693;-59
2022/04/01 15:38:41;;;;;;;1.40;1.30;;;21.40;29.90;;;;;;5051639;28;20206;-61
2022/04/01 15:41:08;;;;;;;1.40;1.30;;;21.40;29.90;;;;;;5048385;28;20241;-58
2022/04/01 15:43:34;;;;;;;2.05;1.40;;;21.40;29.90;;;;;;5051406;28;20256;-59
2022/04/01 15:46:01;;;;;;;1.83;1.20;;;21.40;29.80;;;;;;5050505;28;20208;-60
2022/04/01 15:48:27;;;;;;;1.40;1.30;;;21.40;29.70;;;;;;5048588;28;20288;-61
2022/04/01 15:50:54;;;;;;;1.45;1.15;;;21.40;29.60;;;;;;5047478;28;20238;-60
2022/04/01 15:53:20;;;;;;;1.30;1.20;;;21.40;29.90;;;;;;5038966;28;20222;-54
2022/04/01 15:55:47;;;;;;;1.20;1.10;;;21.40;30.00;;;;;;5023728;28;20654;-54
2022/04/01 15:58:14;;;;;;;2.15;1.20;;;21.40;29.60;;;;;;5050876;28;20200;-57
2022/04/01 16:00:41;;;;;;;1.85;1.00;;;21.40;29.60;;;;;;5049594;28;20205;-58
2022/04/01 16:03:07;;;;;;;1.40;1.20;;;21.40;29.60;;;;;;5049451;28;20218;-58
2022/04/01 16:05:33;;;;;;;1.40;1.00;;;21.40;29.50;;;;;;5049096;28;20210;-59
2022/04/01 16:08:00;;;;;;;1.17;1.08;;;21.40;29.50;;;;;;5051246;28;20198;-59
2022/04/01 16:10:26;;;;;;;1.30;1.20;;;21.30;29.40;;;;;;5049645;28;20289;-59
2022/04/01 16:12:53;;;;;;;1.23;1.13;;;21.30;29.40;;;;;;5047877;28;20260;-52
2022/04/01 16:15:20;;;;;;;1.17;1.08;;;20.90;29.50;;;;;;5049992;28;20658;-55
2022/04/01 16:17:46;;;;;;;1.27;1.17;;;21.00;29.60;;;;;;5052203;28;20214;-59
2022/04/01 16:20:13;;;;;;;1.02;0.93;;;21.10;29.40;;;;;;5047775;28;20667;-59
2022/04/01 16:22:39;;;;;;;1.17;1.10;;;21.20;29.30;;;;;;5049141;28;20218;-58
2022/04/01 16:25:06;;;;;;;1.33;1.23;;;21.30;29.20;;;;;;5049136;28;20220;-56
2022/04/01 16:27:32;;;;;;;1.45;1.10;;;21.30;29.30;;;;;;5048571;28;20212;-47
2022/04/01 16:29:59;;;;;;;1.50;1.40;;;21.40;29.30;;;;;;5050013;28;20202;-63
2022/04/01 16:32:25;;;;;;;1.30;1.20;;;21.50;29.30;;;;;;5050306;28;20648;-59
2022/04/01 16:34:52;;;;;;;1.23;1.13;;;21.40;29.10;;;;;;5047988;28;20575;-51
2022/04/01 16:37:18;;;;;;;1.10;1.10;;;21.60;29.70;;;;;;5046903;28;20996;-58
2022/04/01 16:39:45;;;;;;;1.00;1.00;;;21.70;30.40;;;;;;5048356;28;20212;-58
2022/04/01 16:42:11;;;;;;;1.50;1.38;;;21.80;30.60;;;;;;5048396;28;20248;-54
2022/04/01 16:44:38;;;;;;;1.77;1.10;;;21.80;31.00;;;;;;5049196;28;20208;-53
2022/04/01 16:47:04;;;;;;;1.52;1.20;;;21.90;31.30;;;;;;5047603;28;20288;-56
2022/04/01 16:49:31;;;;;;;1.67;1.00;;;21.90;31.30;;;;;;5046466;28;20206;-57
2022/04/01 16:51:57;;;;;;;1.00;1.00;;;21.90;31.40;;;;;;5045663;28;20212;-53
2022/04/01 16:54:23;;;;;;;1.20;1.20;;;22.00;31.40;;;;;;5046451;28;20238;-52
2022/04/01 16:56:50;;;;;;;1.13;1.02;;;21.90;31.30;;;;;;5040913;28;20221;-60
